Latest Weather Observations for Yulara

IDD60801

Issued at 6:01 am CST Sunday 26 February 2017 (issued every 30 minutes, with the page automatically refreshed every 10 minutes)

About weather observations | Map of weather stations | Latest weather observations for NT | Other Formats
Station Details ID: 015635 Name: YULARA AIRPORT Lat: -25.19 Lon: 130.97 Height: 492.0 m
Data from the previous 72 hours. | See also: Recent months at Yulara
Date/Time
CST
Temp
°C
App
Temp
°C
Dew
Point
°C
Rel
Hum
%
Delta-T
°C
Wind Press
QNH
hPa
Press
MSL
hPa
Rain since
9am
mm
Dir  Spd
km/h
Gust
km/h
Spd
kts
Gust
kts
26/06:00am 19.5 15.8 4.4 37 7.4 SE 13 15 7 8 1016.3 1012.6 -
26/05:30am 19.5 16.6 4.8 38 7.3 SSE 9 13 5 7 1016.3 1012.6 0.0
26/05:00am 19.8 16.9 4.7 37 7.5 SSE 9 13 5 7 1016.2 1012.5 0.0
26/04:30am 20.6 17.4 5.0 36 7.8 SSE 11 13 6 7 1016.1 1012.4 0.0
26/04:00am 21.3 18.1 5.2 35 8.2 SE 11 15 6 8 1016.0 1012.3 0.0
26/03:30am 21.8 18.3 5.3 34 8.4 SE 13 17 7 9 1016.0 1012.3 0.0
26/03:00am 21.9 18.5 5.8 35 8.3 SE 13 17 7 9 1016.0 1012.3 0.0
26/02:30am 22.2 19.2 6.0 35 8.4 SE 11 15 6 8 1016.2 1012.5 0.0
26/02:00am 23.4 19.7 6.2 33 9.0 SE 15 19 8 10 1016.3 1012.6 0.0
26/01:30am 24.0 20.3 6.3 32 9.3 SE 15 20 8 11 1016.3 1012.6 0.0
26/01:00am 23.6 20.4 6.8 34 8.9 SE 13 15 7 8 1016.4 1012.7 0.0
26/12:30am 24.3 21.4 6.6 32 9.4 SE 11 13 6 7 1016.4 1012.7 0.0
26/12:00am 25.3 22.4 6.5 30 10.0 SE 11 13 6 7 1016.4 1012.7 0.0
 
Date/Time
CST
Temp
°C
App
Temp
°C
Dew
Point
°C
Rel
Hum
%
Delta-T
°C
Wind Press
QNH
hPa
Press
MSL
hPa
Rain since
9am
mm
Dir  Spd
km/h
Gust
km/h
Spd
kts
Gust
kts
25/11:30pm 26.3 23.5 6.9 29 10.4 ESE 11 15 6 8 1016.3 1012.6 0.0
25/11:00pm 26.7 23.8 6.7 28 10.8 ESE 11 15 6 8 1016.5 1012.8 0.0
25/10:30pm 27.3 24.4 6.7 27 11.1 ESE 11 15 6 8 1016.5 1012.8 0.0
25/10:00pm 28.2 25.4 6.9 26 11.6 ESE 11 15 6 8 1016.3 1012.6 0.0
25/09:30pm 29.3 26.1 6.7 24 12.3 ESE 13 17 7 9 1016.1 1012.4 0.0
25/09:00pm 28.7 26.0 7.3 26 11.7 SE 11 13 6 7 1016.1 1012.4 0.0
25/08:30pm 29.8 27.0 7.1 24 12.5 SE 11 13 6 7 1015.9 1012.2 0.0
25/08:00pm 31.1 28.7 6.9 22 13.4 ESE 9 13 5 7 1015.7 1012.0 0.0
25/07:30pm 32.9 30.2 5.5 18 14.9 ESE 9 15 5 8 1015.5 1011.8 0.0
25/07:00pm 34.0 30.5 5.5 17 15.6 E 13 17 7 9 1015.2 1011.4 0.0
25/06:30pm 34.1 30.6 5.6 17 15.6 E 13 20 7 11 1015.1 1011.3 0.0
25/06:00pm 35.0 30.9 4.5 15 16.5 E 15 22 8 12 1015.1 1011.3 0.0
25/05:30pm 34.8 30.9 5.3 16 16.2 E 15 24 8 13 1015.1 1011.3 0.0
25/05:00pm 34.9 31.0 5.4 16 16.2 ENE 15 24 8 13 1015.3 1011.5 0.0
25/04:30pm 34.8 30.7 6.2 17 15.9 E 17 26 9 14 1015.6 1011.9 0.0
25/04:00pm 34.8 31.3 5.3 16 16.2 SE 13 22 7 12 1015.8 1012.1 0.0
25/03:30pm 34.3 29.9 4.9 16 16.0 E 17 32 9 17 1016.1 1012.4 0.0
25/03:00pm 34.3 30.7 4.9 16 16.0 E 13 28 7 15 1016.6 1012.9 0.0
25/02:30pm 34.2 29.4 5.7 17 15.7 ENE 20 30 11 16 1017.3 1013.5 0.0
25/02:00pm 34.2 29.2 4.8 16 16.0 E 20 30 11 16 1017.8 1014.1 0.0
25/01:30pm 33.5 29.3 5.9 18 15.2 E 17 28 9 15 1018.2 1014.5 0.0
25/01:00pm 32.9 27.7 5.5 18 14.9 E 22 35 12 19 1018.7 1015.0 0.0
25/12:30pm 32.4 27.3 5.8 19 14.5 E 22 37 12 20 1019.2 1015.5 0.0
25/12:00pm 31.9 27.0 6.9 21 13.8 E 22 33 12 18 1019.6 1015.9 0.0
25/11:30am 31.0 25.9 6.1 21 13.5 E 22 32 12 17 1020.0 1016.3 0.0
25/11:00am 30.3 24.5 6.2 22 13.1 E 26 37 14 20 1020.3 1016.6 0.0
25/10:30am 29.3 23.2 6.7 24 12.3 E 28 41 15 22 1020.6 1016.9 0.0
25/10:00am 28.4 22.7 6.5 25 11.8 ESE 26 39 14 21 1020.7 1017.0 0.0
25/09:30am 27.6 21.5 6.4 26 11.4 E 28 39 15 21 1020.9 1017.2 0.0
25/09:00am 25.8 20.0 6.4 29 10.3 ESE 26 37 14 20 1020.9 1017.2 0.0
25/08:30am 24.0 19.4 6.3 32 9.3 ESE 20 32 11 17 1020.9 1017.2 0.0
25/08:00am 22.0 17.4 5.8 35 8.3 SE 19 28 10 15 1020.5 1016.8 0.0
25/07:30am 20.5 16.8 6.1 39 7.4 SE 15 20 8 11 1020.5 1016.8 0.0
25/07:00am 19.1 16.1 5.9 42 6.7 SSE 11 17 6 9 1020.2 1016.5 0.0
25/06:30am 18.2 15.2 5.8 44 6.2 SSE 11 13 6 7 1019.8 1016.1 0.0
25/06:00am 18.8 16.1 5.6 42 6.6 SSE 9 13 5 7 1019.6 1015.9 0.0
25/05:30am 19.2 16.5 5.6 41 6.8 SSE 9 11 5 6 1019.5 1015.8 0.0
25/05:00am 20.1 17.0 5.4 38 7.4 SE 11 13 6 7 1019.4 1015.7 0.0
25/04:30am 20.5 17.3 5.3 37 7.7 SSE 11 17 6 9 1019.2 1015.5 0.0
25/04:00am 21.1 18.0 5.5 36 7.9 SSE 11 15 6 8 1019.3 1015.6 0.0
25/03:30am 21.6 18.5 5.5 35 8.2 SSE 11 15 6 8 1019.2 1015.5 0.0
25/03:00am 21.3 18.2 5.6 36 8.0 SSE 11 13 6 7 1019.4 1015.7 0.0
25/02:30am 20.8 18.2 6.0 38 7.6 SSE 9 13 5 7 1019.5 1015.8 0.0
25/02:00am 22.0 19.3 5.8 35 8.3 SSE 9 11 5 6 1019.6 1015.9 0.0
25/01:30am 23.5 20.1 5.9 32 9.1 SE 13 17 7 9 1019.7 1016.0 0.0
25/01:00am 24.4 20.6 5.7 30 9.7 SE 15 20 8 11 1019.9 1016.2 0.0
25/12:30am 25.1 20.9 5.8 29 10.1 SE 17 20 9 11 1020.1 1016.4 0.0
25/12:00am 26.1 21.6 6.2 28 10.5 SE 19 26 10 14 1020.2 1016.5 0.0
 
Date/Time
CST
Temp
°C
App
Temp
°C
Dew
Point
°C
Rel
Hum
%
Delta-T
°C
Wind Press
QNH
hPa
Press
MSL
hPa
Rain since
9am
mm
Dir  Spd
km/h
Gust
km/h
Spd
kts
Gust
kts
24/11:30pm 26.6 22.2 6.6 28 10.7 SE 19 24 10 13 1020.1 1016.4 0.0
24/11:00pm 27.1 22.8 7.0 28 10.9 SE 19 22 10 12 1020.2 1016.5 0.0
24/10:30pm 27.8 23.5 7.1 27 11.2 SE 19 24 10 13 1020.1 1016.4 0.0
24/10:00pm 28.7 24.7 6.7 25 12.0 SSE 17 28 9 15 1019.8 1016.1 0.0
24/09:30pm 29.1 25.6 7.1 25 12.0 SSE 15 20 8 11 1019.4 1015.7 0.0
24/09:00pm 29.4 25.4 6.7 24 12.4 SE 17 20 9 11 1019.0 1015.2 0.0
24/08:30pm 30.2 26.8 6.1 22 13.1 SE 13 15 7 8 1018.3 1014.6 0.0
24/08:00pm 31.2 28.0 4.9 19 14.1 SE 11 15 6 8 1018.0 1014.3 0.0
24/07:30pm 32.7 29.0 4.5 17 15.1 SE 13 20 7 11 1017.6 1013.9 0.0
24/07:00pm 34.0 29.4 3.7 15 16.1 SE 17 24 9 13 1017.3 1013.5 0.0
24/06:30pm 34.7 29.5 3.3 14 16.7 SE 20 28 11 15 1017.2 1013.4 0.0
24/06:00pm 35.5 30.4 3.9 14 17.0 SE 20 30 11 16 1017.0 1013.2 0.0
24/05:30pm 35.5 30.0 3.9 14 17.0 SE 22 32 12 17 1016.9 1013.1 0.0
24/05:00pm 36.1 30.9 3.3 13 17.6 ESE 20 30 11 16 1017.0 1013.2 0.0
24/04:30pm 35.5 30.4 2.9 13 17.3 ESE 19 35 10 19 1017.2 1013.4 0.0
24/04:00pm 36.4 32.3 4.6 14 17.4 SSE 15 24 8 13 1017.4 1013.7 0.0
24/03:30pm 35.9 30.8 4.2 14 17.2 SE 20 35 11 19 1017.8 1014.1 0.0
24/03:00pm 35.0 30.6 4.5 15 16.5 SE 17 32 9 17 1018.3 1014.6 0.0
24/02:30pm 35.5 30.9 3.9 14 17.0 SE 17 32 9 17 1019.0 1015.2 0.0
24/02:00pm 35.2 31.4 5.6 16 16.3 ESE 15 39 8 21 1019.4 1015.7 0.0
24/01:30pm 33.8 28.6 5.4 17 15.5 ESE 22 50 12 27 1020.0 1016.3 0.0
24/01:00pm 34.1 29.3 5.6 17 15.7 E 20 33 11 18 1020.5 1016.8 0.0
24/12:30pm 32.9 28.2 6.2 19 14.7 ESE 20 33 11 18 1021.2 1017.5 0.0
24/12:00pm 31.9 26.5 6.2 20 14.0 ESE 24 33 13 18 1021.7 1018.0 0.0
24/11:30am 31.1 26.6 6.2 21 13.6 ESE 19 33 10 18 1021.9 1018.2 0.0
24/11:00am 30.1 24.8 6.7 23 12.8 ESE 24 32 13 17 1022.4 1018.7 0.0
24/10:30am 29.4 24.1 6.7 24 12.3 E 24 33 13 18 1022.7 1019.0 0.0
24/10:00am 28.5 23.2 6.6 25 11.9 ESE 24 35 13 19 1022.8 1019.1 0.0
24/09:30am 27.7 22.1 7.0 27 11.2 ESE 26 41 14 22 1022.9 1019.3 0.0
24/09:00am 26.3 19.9 6.9 29 10.4 E 30 41 16 22 1023.0 1019.4 0.0
24/08:30am 25.4 20.5 7.1 31 9.8 ESE 22 32 12 17 1022.8 1019.1 0.0
24/08:00am 23.7 19.4 7.8 36 8.6 ESE 20 30 11 16 1022.6 1018.9 0.0
24/07:30am 21.7 18.2 8.6 43 7.1 SE 17 22 9 12 1022.3 1018.6 0.0
24/07:00am 20.3 17.1 8.6 47 6.3 SE 15 19 8 10 1022.1 1018.4 0.0
24/06:30am 19.8 17.4 8.8 49 5.9 SSE 11 15 6 8 1021.9 1018.2 0.0
24/06:00am 19.3 17.3 8.6 50 5.7 SSE 9 11 5 6 1021.4 1017.7 0.0
24/05:30am 20.6 18.2 8.6 46 6.4 SSE 11 15 6 8 1020.8 1017.1 0.0
24/05:00am 20.9 18.5 8.5 45 6.7 SSE 11 13 6 7 1020.6 1016.9 0.0
24/04:30am 20.5 18.5 8.5 46 6.4 SSE 9 11 5 6 1020.4 1016.7 0.0
24/04:00am 21.1 18.6 8.4 44 6.8 SSE 11 13 6 7 1020.2 1016.5 0.0
24/03:30am 21.2 19.0 7.8 42 7.1 SSE 9 11 5 6 1020.0 1016.3 0.0
24/03:00am 21.9 19.7 7.7 40 7.5 SSE 9 11 5 6 1019.9 1016.2 0.0
24/02:30am 23.2 20.9 7.3 36 8.5 SSE 9 15 5 8 1020.0 1016.3 0.0
24/02:00am 24.2 21.4 6.9 33 9.2 SE 11 15 6 8 1020.1 1016.4 0.0
24/01:30am 25.3 21.8 7.0 31 9.8 SE 15 24 8 13 1020.0 1016.3 0.0
24/01:00am 25.8 22.2 6.9 30 10.1 SE 15 20 8 11 1020.0 1016.3 0.0
24/12:30am 26.4 23.1 6.4 28 10.7 SE 13 20 7 11 1020.0 1016.3 0.0
24/12:00am 27.4 23.4 6.8 27 11.1 SE 17 20 9 11 1020.0 1016.3 0.0
 
Date/Time
CST
Temp
°C
App
Temp
°C
Dew
Point
°C
Rel
Hum
%
Delta-T
°C
Wind Press
QNH
hPa
Press
MSL
hPa
Rain since
9am
mm
Dir  Spd
km/h
Gust
km/h
Spd
kts
Gust
kts
23/11:30pm 27.5 23.5 6.8 27 11.2 SE 17 22 9 12 1019.9 1016.2 0.0
23/11:00pm 28.0 24.0 6.7 26 11.5 SE 17 24 9 13 1019.9 1016.2 0.0
23/10:30pm 28.8 24.8 6.8 25 12.0 ESE 17 24 9 13 1019.9 1016.2 0.0
23/10:00pm 29.2 25.2 6.6 24 12.3 SE 17 28 9 15 1019.5 1015.8 0.0
23/09:30pm 29.7 25.4 7.0 24 12.4 SE 19 24 10 13 1019.0 1015.2 0.0
23/09:00pm 30.0 26.1 7.2 24 12.6 SE 17 22 9 12 1018.5 1014.8 0.0
23/08:30pm 30.7 26.8 7.2 23 13.0 SE 17 22 9 12 1018.2 1014.5 0.0
23/08:00pm 31.3 27.6 6.4 21 13.7 SSE 15 19 8 10 1017.7 1014.0 0.0
23/07:30pm 32.6 27.9 5.2 18 14.8 SE 19 22 10 12 1017.2 1013.4 0.0
23/07:00pm 34.2 29.8 4.8 16 16.0 SE 17 26 9 14 1016.9 1013.1 0.0
23/06:30pm 35.2 30.0 3.7 14 16.9 SE 20 28 11 15 1016.5 1012.8 0.0
23/06:00pm 35.7 30.4 3.0 13 17.4 ESE 20 30 11 16 1016.2 1012.5 0.0
23/05:30pm 35.6 30.5 3.0 13 17.3 ESE 19 28 10 15 1016.1 1012.4 0.0
23/05:00pm 35.8 30.5 3.1 13 17.4 ESE 20 28 11 15 1016.0 1012.3 0.0
23/04:30pm 35.6 30.5 3.0 13 17.3 ESE 19 30 10 16 1016.2 1012.5 0.0
23/04:00pm 35.6 30.5 3.0 13 17.3 SE 19 28 10 15 1016.2 1012.5 0.0
23/03:30pm 35.6 30.3 3.0 13 17.3 E 20 32 11 17 1016.6 1012.9 0.0
23/03:00pm 35.4 30.1 2.8 13 17.2 E 20 32 11 17 1017.0 1013.2 0.0
23/02:30pm 35.0 29.8 3.5 14 16.8 ESE 20 32 11 17 1017.3 1013.5 0.0
23/02:00pm 34.0 28.6 4.6 16 15.9 ESE 22 37 12 20 1017.6 1013.9 0.0
23/01:30pm 33.5 28.0 4.2 16 15.7 ESE 22 33 12 18 1018.0 1014.3 0.0
23/01:00pm 31.8 25.9 3.8 17 14.8 ESE 24 37 13 20 1018.3 1014.6 0.0
23/12:30pm 33.1 26.6 4.8 17 15.2 E 28 39 15 21 1018.6 1014.9 0.0
23/12:00pm 31.7 25.5 6.0 20 14.0 ENE 28 43 15 23 1018.8 1015.1 0.0
23/11:30am 30.9 24.3 6.0 21 13.5 E 30 41 16 22 1019.4 1015.7 0.0
23/11:00am 29.9 24.0 5.9 22 13.0 E 26 35 14 19 1019.6 1015.9 0.0
23/10:30am 28.8 23.2 5.6 23 12.4 E 24 33 13 18 1019.9 1016.2 0.0
23/10:00am 27.7 21.2 4.7 23 12.0 ESE 28 39 15 21 1020.0 1016.3 0.0
23/09:30am 26.4 20.2 4.2 24 11.4 ESE 26 39 14 21 1020.0 1016.3 0.0
23/09:00am 25.9 19.6 5.5 27 10.7 ESE 28 44 15 24 1019.8 1016.1 0.0
23/08:30am 23.9 19.0 5.3 30 9.6 SE 20 32 11 17 1019.5 1015.8 0.0
23/08:00am 22.5 18.3 5.9 34 8.6 SE 17 22 9 12 1019.3 1015.6 0.0
23/07:30am 21.3 17.8 5.6 36 8.0 SE 13 19 7 10 1018.8 1015.1 0.0
23/07:00am 19.9 17.3 6.3 41 7.0 SE 9 13 5 7 1018.3 1014.6 0.0
23/06:30am 18.4 16.0 7.2 48 5.8 S 9 9 5 5 1017.8 1014.1 0.0

Other Formats:

Comma delimited format used in spreadsheet applications
http://www.bom.gov.au/fwo/IDD60801/IDD60801.94462.axf

JavaScript Object Notation format (JSON) in row-major order
http://www.bom.gov.au/fwo/IDD60801/IDD60801.94462.json